Time,TemperatureF,DewpointF,PressureIn,WindDirection,WindDirectionDegrees,WindSpeedMPH,WindSpeedGustMPH,Humidity,HourlyPrecipIn,Conditions,Clouds,dailyrainin,SoftwareType,DateUTC
2013-02-03 00:00:00,31.2,26.1,30.33,South,172,1.0,3.0,81,0.00,,---,0.00,VWS V14.01,2013-02-03 06:00:00,
2013-02-03 00:01:00,31.2,26.1,30.33,South,171,1.0,1.0,81,0.00,,---,0.00,VWS V14.01,2013-02-03 06:01:00,
2013-02-03 00:04:00,31.2,26.1,30.33,South,172,1.0,2.0,81,0.00,,---,0.00,VWS V14.01,2013-02-03 06:04:00,
2013-02-03 00:07:00,30.8,25.4,30.33,South,172,1.0,2.0,80,0.00,,---,0.00,VWS V14.01,2013-02-03 06:07:00,
2013-02-03 00:10:00,30.5,25.4,30.33,South,172,0.0,2.0,81,0.00,,---,0.00,VWS V14.01,2013-02-03 06:10:00,
2013-02-03 00:13:00,30.1,25.0,30.33,South,172,0.0,2.0,81,0.00,,---,0.00,VWS V14.01,2013-02-03 06:13:00,
2013-02-03 00:16:00,29.9,25.1,30.33,South,172,0.0,2.0,82,0.00,,---,0.00,VWS V14.01,2013-02-03 06:16:00,
2013-02-03 00:19:00,29.7,25.2,30.33,South,172,0.0,2.0,83,0.00,,---,0.00,VWS V14.01,2013-02-03 06:19:00,
2013-02-03 00:22:00,29.4,24.6,30.33,South,172,0.0,2.0,82,0.00,,---,0.00,VWS V14.01,2013-02-03 06:22:00,
2013-02-03 00:25:00,29.3,24.8,30.33,South,172,0.0,2.0,83,0.00,,---,0.00,VWS V14.01,2013-02-03 06:25:00,
2013-02-03 00:28:00,29.2,25.0,30.33,South,172,1.0,2.0,84,0.00,,---,0.00,VWS V14.01,2013-02-03 06:28:00,
2013-02-03 00:30:00,29.2,25.3,30.33,South,172,2.0,2.0,85,0.00,,---,0.00,VWS V14.01,2013-02-03 06:30:00,
2013-02-03 00:31:00,29.3,25.6,30.33,South,172,1.0,2.0,86,0.00,,---,0.00,VWS V14.01,2013-02-03 06:31:00,
2013-02-03 00:34:00,29.6,25.9,30.33,South,172,1.0,2.0,86,0.00,,---,0.00,VWS V14.01,2013-02-03 06:34:00,
2013-02-03 00:37:00,29.9,26.2,30.33,South,172,1.0,2.0,86,0.00,,---,0.00,VWS V14.01,2013-02-03 06:37:00,
2013-02-03 00:40:00,30.3,26.3,30.33,South,172,0.0,2.0,85,0.00,,---,0.00,VWS V14.01,2013-02-03 06:40:00,
2013-02-03 00:43:00,30.6,26.6,30.33,South,172,1.0,2.0,85,0.00,,---,0.00,VWS V14.01,2013-02-03 06:43:00,
2013-02-03 00:46:00,30.7,26.5,30.33,South,172,0.0,2.0,84,0.00,,---,0.00,VWS V14.01,2013-02-03 06:46:00,
2013-02-03 00:49:00,30.8,26.5,30.33,South,172,2.0,2.0,84,0.00,,---,0.00,VWS V14.01,2013-02-03 06:49:00,
2013-02-03 00:52:00,31.0,26.5,30.33,South,172,0.0,2.0,83,0.00,,---,0.00,VWS V14.01,2013-02-03 06:52:00,
2013-02-03 00:55:00,30.9,25.8,30.33,South,172,1.0,2.0,81,0.00,,---,0.00,VWS V14.01,2013-02-03 06:55:00,
2013-02-03 00:58:00,30.5,25.4,30.33,South,172,1.0,2.0,81,0.00,,---,0.00,VWS V14.01,2013-02-03 06:58:00,
2013-02-03 01:00:00,30.3,25.2,30.33,South,172,0.0,2.0,81,0.00,,---,0.00,VWS V14.01,2013-02-03 07:00:00,
2013-02-03 01:01:00,30.1,25.0,30.33,South,172,0.0,1.0,81,0.00,,---,0.00,VWS V14.01,2013-02-03 07:01:00,
2013-02-03 01:04:00,29.9,24.8,30.33,South,172,0.0,1.0,81,0.00,,---,0.00,VWS V14.01,2013-02-03 07:04:00,
2013-02-03 01:07:00,29.8,25.0,30.33,South,172,0.0,1.0,82,0.00,,---,0.00,VWS V14.01,2013-02-03 07:07:00,
2013-02-03 01:10:00,29.7,25.2,30.33,South,172,0.0,1.0,83,0.00,,---,0.00,VWS V14.01,2013-02-03 07:10:00,
2013-02-03 01:13:00,29.7,25.5,30.32,South,172,0.0,2.0,84,0.00,,---,0.00,VWS V14.01,2013-02-03 07:13:00,
2013-02-03 01:16:00,29.8,25.9,30.32,South,172,1.0,2.0,85,0.00,,---,0.00,VWS V14.01,2013-02-03 07:16:00,
2013-02-03 01:19:00,30.0,26.3,30.32,South,172,1.0,2.0,86,0.00,,---,0.00,VWS V14.01,2013-02-03 07:19:00,
2013-02-03 01:22:00,30.3,26.6,30.32,South,172,1.0,2.0,86,0.00,,---,0.00,VWS V14.01,2013-02-03 07:22:00,
2013-02-03 01:25:00,30.5,26.5,30.32,South,172,1.0,2.0,85,0.00,,---,0.00,VWS V14.01,2013-02-03 07:25:00,
2013-02-03 01:28:00,30.7,26.7,30.32,South,172,1.0,2.0,85,0.00,,---,0.00,VWS V14.01,2013-02-03 07:28:00,
2013-02-03 01:30:00,30.8,26.8,30.32,South,172,1.0,2.0,85,0.00,,---,0.00,VWS V14.01,2013-02-03 07:30:00,
2013-02-03 01:31:00,30.8,26.5,30.33,South,172,1.0,2.0,84,0.00,,---,0.00,VWS V14.01,2013-02-03 07:31:00,
2013-02-03 01:34:00,30.9,26.6,30.32,South,172,1.0,2.0,84,0.00,,---,0.00,VWS V14.01,2013-02-03 07:34:00,
2013-02-03 01:37:00,30.9,26.6,30.32,South,172,0.0,2.0,84,0.00,,---,0.00,VWS V14.01,2013-02-03 07:37:00,
2013-02-03 01:40:00,30.8,26.3,30.33,South,172,1.0,2.0,83,0.00,,---,0.00,VWS V14.01,2013-02-03 07:40:00,
2013-02-03 01:43:00,30.7,25.9,30.32,South,172,1.0,2.0,82,0.00,,---,0.00,VWS V14.01,2013-02-03 07:43:00,
2013-02-03 01:46:00,30.6,26.1,30.32,South,172,0.0,2.0,83,0.00,,---,0.00,VWS V14.01,2013-02-03 07:46:00,
2013-02-03 01:50:00,30.6,26.4,30.32,South,172,0.0,2.0,84,0.00,,---,0.00,VWS V14.01,2013-02-03 07:50:00,
2013-02-03 01:53:00,30.6,26.4,30.32,South,172,0.0,2.0,84,0.00,,---,0.00,VWS V14.01,2013-02-03 07:53:00,
2013-02-03 01:56:00,30.6,26.1,30.32,South,172,0.0,2.0,83,0.00,,---,0.00,VWS V14.01,2013-02-03 07:56:00,
2013-02-03 01:59:00,30.4,25.3,30.32,South,172,0.0,2.0,81,0.00,,---,0.00,VWS V14.01,2013-02-03 07:59:00,
2013-02-03 02:00:00,30.3,24.9,30.32,South,172,0.0,2.0,80,0.00,,---,0.00,VWS V14.01,2013-02-03 08:00:00,
2013-02-03 02:02:00,30.2,24.8,30.32,South,172,0.0,0.0,80,0.00,,---,0.00,VWS V14.01,2013-02-03 08:02:00,
2013-02-03 02:05:00,29.9,24.8,30.32,South,172,0.0,0.0,81,0.00,,---,0.00,VWS V14.01,2013-02-03 08:05:00,
2013-02-03 02:08:00,29.7,25.2,30.32,South,172,0.0,1.0,83,0.00,,---,0.00,VWS V14.01,2013-02-03 08:08:00,
2013-02-03 02:11:00,29.6,25.1,30.32,South,172,0.0,1.0,83,0.00,,---,0.00,VWS V14.01,2013-02-03 08:11:00,
2013-02-03 02:14:00,29.4,25.2,30.32,South,172,0.0,1.0,84,0.00,,---,0.00,VWS V14.01,2013-02-03 08:14:00,
2013-02-03 02:17:00,29.3,25.4,30.32,South,172,0.0,1.0,85,0.00,,---,0.00,VWS V14.01,2013-02-03 08:17:00,
2013-02-03 02:20:00,29.2,25.3,30.32,South,172,0.0,1.0,85,0.00,,---,0.00,VWS V14.01,2013-02-03 08:20:00,
2013-02-03 02:23:00,29.3,25.6,30.32,South,172,0.0,1.0,86,0.00,,---,0.00,VWS V14.01,2013-02-03 08:23:00,
2013-02-03 02:26:00,29.4,25.7,30.32,South,172,0.0,1.0,86,0.00,,---,0.00,VWS V14.01,2013-02-03 08:26:00,
2013-02-03 02:29:00,29.5,26.1,30.32,South,172,0.0,1.0,87,0.00,,---,0.00,VWS V14.01,2013-02-03 08:29:00,
2013-02-03 02:30:00,29.5,26.1,30.32,South,172,0.0,1.0,87,0.00,,---,0.00,VWS V14.01,2013-02-03 08:30:00,
2013-02-03 02:32:00,29.5,25.8,30.32,South,172,0.0,0.0,86,0.00,,---,0.00,VWS V14.01,2013-02-03 08:32:00,
2013-02-03 02:35:00,29.6,25.9,30.32,South,172,0.0,0.0,86,0.00,,---,0.00,VWS V14.01,2013-02-03 08:35:00,
2013-02-03 02:38:00,29.6,25.9,30.32,South,172,0.0,1.0,86,0.00,,---,0.00,VWS V14.01,2013-02-03 08:38:00,
2013-02-03 02:41:00,29.6,25.9,30.32,South,172,0.0,1.0,86,0.00,,---,0.00,VWS V14.01,2013-02-03 08:41:00,
2013-02-03 02:44:00,29.7,26.0,30.32,South,172,1.0,1.0,86,0.00,,---,0.00,VWS V14.01,2013-02-03 08:44:00,
2013-02-03 02:47:00,29.7,26.0,30.32,South,172,0.0,1.0,86,0.00,,---,0.00,VWS V14.01,2013-02-03 08:47:00,
2013-02-03 02:50:00,29.7,26.0,30.32,South,172,2.0,3.0,86,0.00,,---,0.00,VWS V14.01,2013-02-03 08:50:00,
2013-02-03 02:53:00,29.7,26.0,30.32,South,172,0.0,3.0,86,0.00,,---,0.00,VWS V14.01,2013-02-03 08:53:00,
2013-02-03 02:56:00,29.6,25.9,30.32,South,172,1.0,3.0,86,0.00,,---,0.00,VWS V14.01,2013-02-03 08:56:00,
2013-02-03 02:59:00,29.6,25.9,30.32,South,172,0.0,3.0,86,0.00,,---,0.00,VWS V14.01,2013-02-03 08:59:00,
2013-02-03 03:00:00,29.6,25.9,30.32,South,172,0.0,3.0,86,0.00,,---,0.00,VWS V14.01,2013-02-03 09:00:00,
2013-02-03 03:02:00,29.5,25.8,30.32,South,172,0.0,0.0,86,0.00,,---,0.00,VWS V14.01,2013-02-03 09:02:00,
2013-02-03 03:05:00,29.3,25.4,30.31,South,172,0.0,0.0,85,0.00,,---,0.00,VWS V14.01,2013-02-03 09:05:00,
2013-02-03 03:08:00,28.9,25.0,30.31,South,172,0.0,1.0,85,0.00,,---,0.00,VWS V14.01,2013-02-03 09:08:00,
2013-02-03 03:11:00,28.4,24.2,30.31,South,172,1.0,1.0,84,0.00,,---,0.00,VWS V14.01,2013-02-03 09:11:00,
2013-02-03 03:14:00,28.0,24.1,30.32,South,172,0.0,1.0,85,0.00,,---,0.00,VWS V14.01,2013-02-03 09:14:00,
2013-02-03 03:17:00,27.8,24.2,30.32,South,172,0.0,1.0,86,0.00,,---,0.00,VWS V14.01,2013-02-03 09:17:00,
2013-02-03 03:20:00,28.0,24.9,30.32,South,172,0.0,1.0,88,0.00,,---,0.00,VWS V14.01,2013-02-03 09:20:00,
2013-02-03 03:23:00,28.6,26.0,30.32,South,172,0.0,1.0,90,0.00,,---,0.00,VWS V14.01,2013-02-03 09:23:00,
2013-02-03 03:26:00,28.8,25.7,30.31,South,172,0.0,1.0,88,0.00,,---,0.00,VWS V14.01,2013-02-03 09:26:00,
2013-02-03 03:29:00,28.8,25.4,30.31,South,172,0.0,1.0,87,0.00,,---,0.00,VWS V14.01,2013-02-03 09:29:00,
2013-02-03 03:30:00,28.8,25.4,30.31,South,172,0.0,1.0,87,0.00,,---,0.00,VWS V14.01,2013-02-03 09:30:00,
2013-02-03 03:32:00,28.5,24.9,30.31,South,172,0.0,1.0,86,0.00,,---,0.00,VWS V14.01,2013-02-03 09:32:00,
2013-02-03 03:35:00,28.4,24.8,30.31,South,172,0.0,1.0,86,0.00,,---,0.00,VWS V14.01,2013-02-03 09:35:00,
2013-02-03 03:38:00,28.2,24.8,30.31,South,172,1.0,1.0,87,0.00,,---,0.00,VWS V14.01,2013-02-03 09:38:00,
2013-02-03 03:41:00,28.0,24.6,30.31,South,172,1.0,1.0,87,0.00,,---,0.00,VWS V14.01,2013-02-03 09:41:00,
2013-02-03 03:44:00,27.8,24.4,30.30,South,172,0.0,1.0,87,0.00,,---,0.00,VWS V14.01,2013-02-03 09:44:00,
2013-02-03 03:47:00,27.7,24.3,30.30,South,172,0.0,1.0,87,0.00,,---,0.00,VWS V14.01,2013-02-03 09:47:00,
2013-02-03 03:50:00,27.7,24.6,30.30,South,172,0.0,1.0,88,0.00,,---,0.00,VWS V14.01,2013-02-03 09:50:00,
2013-02-03 03:53:00,27.7,24.6,30.30,South,172,0.0,1.0,88,0.00,,---,0.00,VWS V14.01,2013-02-03 09:53:00,
2013-02-03 03:56:00,27.6,24.5,30.30,South,172,0.0,1.0,88,0.00,,---,0.00,VWS V14.01,2013-02-03 09:56:00,
2013-02-03 03:59:00,27.4,24.3,30.30,South,172,0.0,1.0,88,0.00,,---,0.00,VWS V14.01,2013-02-03 09:59:00,
2013-02-03 04:00:00,27.5,24.4,30.30,South,172,0.0,1.0,88,0.00,,---,0.00,VWS V14.01,2013-02-03 10:00:00,
2013-02-03 04:02:00,27.3,24.2,30.30,South,172,0.0,0.0,88,0.00,,---,0.00,VWS V14.01,2013-02-03 10:02:00,
2013-02-03 04:06:00,27.4,24.6,30.30,South,172,0.0,0.0,89,0.00,,---,0.00,VWS V14.01,2013-02-03 10:06:00,
2013-02-03 04:09:00,27.7,25.2,30.30,South,172,0.0,0.0,90,0.00,,---,0.00,VWS V14.01,2013-02-03 10:09:00,
2013-02-03 04:12:00,28.0,25.5,30.29,South,172,0.0,1.0,90,0.00,,---,0.00,VWS V14.01,2013-02-03 10:12:00,
2013-02-03 04:15:00,28.2,25.6,30.29,South,172,1.0,2.0,90,0.00,,---,0.00,VWS V14.01,2013-02-03 10:15:00,
2013-02-03 04:18:00,28.1,25.0,30.29,South,172,1.0,2.0,88,0.00,,---,0.00,VWS V14.01,2013-02-03 10:18:00,
2013-02-03 04:21:00,27.9,24.8,30.29,South,172,1.0,2.0,88,0.00,,---,0.00,VWS V14.01,2013-02-03 10:21:00,
2013-02-03 04:24:00,27.7,24.6,30.29,South,172,2.0,2.0,88,0.00,,---,0.00,VWS V14.01,2013-02-03 10:24:00,
2013-02-03 04:27:00,27.5,24.4,30.29,South,172,1.0,3.0,88,0.00,,---,0.00,VWS V14.01,2013-02-03 10:27:00,
2013-02-03 04:30:00,27.5,24.7,30.29,South,172,1.0,3.0,89,0.00,,---,0.00,VWS V14.01,2013-02-03 10:30:00,
2013-02-03 04:33:00,27.7,25.2,30.29,South,172,1.0,2.0,90,0.00,,---,0.00,VWS V14.01,2013-02-03 10:33:00,
2013-02-03 04:36:00,28.0,25.7,30.29,South,172,1.0,2.0,91,0.00,,---,0.00,VWS V14.01,2013-02-03 10:36:00,
2013-02-03 04:39:00,28.3,26.0,30.29,South,172,1.0,2.0,91,0.00,,---,0.00,VWS V14.01,2013-02-03 10:39:00,
2013-02-03 04:42:00,28.4,25.9,30.29,South,172,1.0,2.0,90,0.00,,---,0.00,VWS V14.01,2013-02-03 10:42:00,
2013-02-03 04:45:00,28.7,26.4,30.29,South,172,1.0,2.0,91,0.00,,---,0.00,VWS V14.01,2013-02-03 10:45:00,
2013-02-03 04:48:00,29.0,26.7,30.29,South,172,1.0,2.0,91,0.00,,---,0.00,VWS V14.01,2013-02-03 10:48:00,
2013-02-03 04:51:00,29.2,26.6,30.29,South,172,0.0,2.0,90,0.00,,---,0.00,VWS V14.01,2013-02-03 10:51:00,
2013-02-03 04:54:00,29.3,26.5,30.29,South,172,0.0,2.0,89,0.00,,---,0.00,VWS V14.01,2013-02-03 10:54:00,
2013-02-03 04:57:00,29.4,26.6,30.29,South,172,0.0,2.0,89,0.00,,---,0.00,VWS V14.01,2013-02-03 10:57:00,
2013-02-03 05:00:00,29.5,26.7,30.30,South,172,0.0,2.0,89,0.00,,---,0.00,VWS V14.01,2013-02-03 11:00:00,
2013-02-03 05:03:00,29.6,26.8,30.30,South,172,0.0,0.0,89,0.00,,---,0.00,VWS V14.01,2013-02-03 11:03:00,
2013-02-03 05:06:00,29.7,26.9,30.30,South,172,0.0,0.0,89,0.00,,---,0.00,VWS V14.01,2013-02-03 11:06:00,
2013-02-03 05:09:00,29.7,26.9,30.30,South,172,0.0,0.0,89,0.00,,---,0.00,VWS V14.01,2013-02-03 11:09:00,
2013-02-03 05:12:00,29.6,26.8,30.30,South,172,0.0,0.0,89,0.00,,---,0.00,VWS V14.01,2013-02-03 11:12:00,
2013-02-03 05:15:00,29.6,26.8,30.30,South,172,0.0,0.0,89,0.00,,---,0.00,VWS V14.01,2013-02-03 11:15:00,
2013-02-03 05:21:00,29.5,26.4,30.30,South,172,1.0,2.0,88,0.00,,---,0.00,VWS V14.01,2013-02-03 11:21:00,
2013-02-03 05:24:00,29.2,25.8,30.30,South,172,0.0,2.0,87,0.00,,---,0.00,VWS V14.01,2013-02-03 11:24:00,
2013-02-03 05:27:00,29.0,25.6,30.30,South,172,0.0,2.0,87,0.00,,---,0.00,VWS V14.01,2013-02-03 11:27:00,
2013-02-03 05:30:00,28.8,25.4,30.30,South,172,0.0,2.0,87,0.00,,---,0.00,VWS V14.01,2013-02-03 11:30:00,
2013-02-03 05:33:00,28.5,25.1,30.30,South,172,0.0,0.0,87,0.00,,---,0.00,VWS V14.01,2013-02-03 11:33:00,
2013-02-03 05:36:00,28.3,24.7,30.29,South,172,0.0,0.0,86,0.00,,---,0.00,VWS V14.01,2013-02-03 11:36:00,
2013-02-03 05:39:00,28.1,24.7,30.29,South,172,0.0,0.0,87,0.00,,---,0.00,VWS V14.01,2013-02-03 11:39:00,
2013-02-03 05:42:00,27.9,24.5,30.29,South,172,0.0,0.0,87,0.00,,---,0.00,VWS V14.01,2013-02-03 11:42:00,
2013-02-03 05:45:00,28.0,25.2,30.29,South,172,0.0,1.0,89,0.00,,---,0.00,VWS V14.01,2013-02-03 11:45:00,
2013-02-03 05:49:00,27.9,24.8,30.30,South,172,1.0,1.0,88,0.00,,---,0.00,VWS V14.01,2013-02-03 11:49:00,
2013-02-03 05:52:00,27.6,24.2,30.30,South,172,0.0,1.0,87,0.00,,---,0.00,VWS V14.01,2013-02-03 11:52:00,
2013-02-03 05:55:00,27.4,24.0,30.29,South,172,0.0,1.0,87,0.00,,---,0.00,VWS V14.01,2013-02-03 11:55:00,
2013-02-03 05:58:00,27.2,24.1,30.29,South,172,0.0,1.0,88,0.00,,---,0.00,VWS V14.01,2013-02-03 11:58:00,
2013-02-03 06:00:00,27.1,24.0,30.29,South,172,0.0,1.0,88,0.00,,---,0.00,VWS V14.01,2013-02-03 12:00:00,
2013-02-03 06:01:00,27.1,24.0,30.29,South,172,0.0,0.0,88,0.00,,---,0.00,VWS V14.01,2013-02-03 12:01:00,
2013-02-03 06:04:00,26.9,23.8,30.29,South,172,0.0,0.0,88,0.00,,---,0.00,VWS V14.01,2013-02-03 12:04:00,
2013-02-03 06:07:00,26.7,23.4,30.30,South,172,0.0,0.0,87,0.00,,---,0.00,VWS V14.01,2013-02-03 12:07:00,
2013-02-03 06:10:00,26.4,23.1,30.30,South,172,0.0,0.0,87,0.00,,---,0.00,VWS V14.01,2013-02-03 12:10:00,
2013-02-03 06:13:00,26.2,22.9,30.30,South,172,0.0,0.0,87,0.00,,---,0.00,VWS V14.01,2013-02-03 12:13:00,
2013-02-03 06:16:00,26.1,22.8,30.30,South,172,0.0,0.0,87,0.00,,---,0.00,VWS V14.01,2013-02-03 12:16:00,
2013-02-03 06:19:00,25.9,22.8,30.30,South,172,0.0,0.0,88,0.00,,---,0.00,VWS V14.01,2013-02-03 12:19:00,
2013-02-03 06:22:00,25.8,22.7,30.30,South,172,0.0,1.0,88,0.00,,---,0.00,VWS V14.01,2013-02-03 12:22:00,
2013-02-03 06:25:00,25.7,22.9,30.30,South,172,0.0,1.0,89,0.00,,---,0.00,VWS V14.01,2013-02-03 12:25:00,
2013-02-03 06:28:00,25.7,22.9,30.30,South,172,0.0,1.0,89,0.00,,---,0.00,VWS V14.01,2013-02-03 12:28:00,
2013-02-03 06:30:00,25.7,22.9,30.30,South,172,0.0,1.0,89,0.00,,---,0.00,VWS V14.01,2013-02-03 12:30:00,
2013-02-03 06:31:00,25.7,23.2,30.30,South,172,0.0,0.0,90,0.00,,---,0.00,VWS V14.01,2013-02-03 12:31:00,
2013-02-03 06:34:00,25.8,23.3,30.30,South,172,0.0,0.0,90,0.00,,---,0.00,VWS V14.01,2013-02-03 12:34:00,
2013-02-03 06:37:00,25.9,23.4,30.30,South,172,0.0,0.0,90,0.00,,---,0.00,VWS V14.01,2013-02-03 12:37:00,
2013-02-03 06:40:00,25.9,23.4,30.30,South,172,0.0,0.0,90,0.00,,---,0.00,VWS V14.01,2013-02-03 12:40:00,
2013-02-03 06:43:00,25.9,23.4,30.30,South,172,0.0,0.0,90,0.00,,---,0.00,VWS V14.01,2013-02-03 12:43:00,
2013-02-03 06:46:00,25.9,23.4,30.31,South,172,0.0,0.0,90,0.00,,---,0.00,VWS V14.01,2013-02-03 12:46:00,
2013-02-03 06:49:00,25.9,23.4,30.30,South,172,0.0,0.0,90,0.00,,---,0.00,VWS V14.01,2013-02-03 12:49:00,
2013-02-03 06:52:00,25.9,23.4,30.30,South,172,0.0,0.0,90,0.00,,---,0.00,VWS V14.01,2013-02-03 12:52:00,
2013-02-03 06:55:00,25.9,23.4,30.31,South,172,0.0,1.0,90,0.00,,---,0.00,VWS V14.01,2013-02-03 12:55:00,
2013-02-03 06:58:00,25.9,23.4,30.31,South,172,1.0,2.0,90,0.00,,---,0.00,VWS V14.01,2013-02-03 12:58:00,
2013-02-03 07:00:00,26.0,23.5,30.31,South,172,1.0,2.0,90,0.00,,---,0.00,VWS V14.01,2013-02-03 13:00:00,
2013-02-03 07:01:00,26.1,23.8,30.31,South,172,0.0,1.0,91,0.00,,---,0.00,VWS V14.01,2013-02-03 13:01:00,
2013-02-03 07:04:00,26.3,24.0,30.31,South,172,0.0,1.0,91,0.00,,---,0.00,VWS V14.01,2013-02-03 13:04:00,
2013-02-03 07:07:00,26.6,24.6,30.31,South,172,2.0,3.0,92,0.00,,---,0.00,VWS V14.01,2013-02-03 13:07:00,
2013-02-03 07:10:00,26.8,24.8,30.31,South,172,1.0,3.0,92,0.00,,---,0.00,VWS V14.01,2013-02-03 13:10:00,
2013-02-03 07:13:00,26.7,24.4,30.31,South,172,0.0,3.0,91,0.00,,---,0.00,VWS V14.01,2013-02-03 13:13:00,
2013-02-03 07:16:00,26.8,24.5,30.31,South,172,0.0,3.0,91,0.00,,---,0.00,VWS V14.01,2013-02-03 13:16:00,
2013-02-03 07:19:00,27.0,24.7,30.31,South,172,0.0,3.0,91,0.00,,---,0.00,VWS V14.01,2013-02-03 13:19:00,
2013-02-03 07:22:00,27.3,25.3,30.31,South,172,0.0,3.0,92,0.00,,---,0.00,VWS V14.01,2013-02-03 13:22:00,
2013-02-03 07:25:00,27.6,25.6,30.31,South,172,0.0,3.0,92,0.00,,---,0.00,VWS V14.01,2013-02-03 13:25:00,
2013-02-03 07:28:00,28.0,26.0,30.31,South,172,0.0,3.0,92,0.00,,---,0.00,VWS V14.01,2013-02-03 13:28:00,
2013-02-03 07:30:00,28.1,26.1,30.31,South,172,1.0,3.0,92,0.00,,---,0.00,VWS V14.01,2013-02-03 13:30:00,
2013-02-03 07:31:00,28.3,26.3,30.32,South,172,1.0,2.0,92,0.00,,---,0.00,VWS V14.01,2013-02-03 13:31:00,
2013-02-03 07:34:00,28.7,26.4,30.32,South,172,0.0,2.0,91,0.00,,---,0.00,VWS V14.01,2013-02-03 13:34:00,
2013-02-03 07:37:00,29.0,26.7,30.32,South,172,0.0,2.0,91,0.00,,---,0.00,VWS V14.01,2013-02-03 13:37:00,
2013-02-03 07:40:00,29.4,27.1,30.32,South,172,0.0,2.0,91,0.00,,---,0.00,VWS V14.01,2013-02-03 13:40:00,
2013-02-03 07:43:00,29.8,27.5,30.32,South,172,0.0,2.0,91,0.00,,---,0.00,VWS V14.01,2013-02-03 13:43:00,
2013-02-03 07:46:00,30.3,28.0,30.32,South,172,0.0,2.0,91,0.00,,---,0.00,VWS V14.01,2013-02-03 13:46:00,
2013-02-03 07:49:00,30.9,28.6,30.32,South,172,0.0,2.0,91,0.00,,---,0.00,VWS V14.01,2013-02-03 13:49:00,
2013-02-03 07:53:00,31.3,29.0,30.32,South,172,0.0,2.0,91,0.00,,---,0.00,VWS V14.01,2013-02-03 13:53:00,
2013-02-03 07:56:00,31.6,29.0,30.32,South,172,1.0,2.0,90,0.00,,---,0.00,VWS V14.01,2013-02-03 13:56:00,
2013-02-03 07:59:00,31.9,29.0,30.32,South,172,0.0,2.0,89,0.00,,---,0.00,VWS V14.01,2013-02-03 13:59:00,
2013-02-03 08:00:00,32.1,29.2,30.32,South,172,0.0,2.0,89,0.00,,---,0.00,VWS V14.01,2013-02-03 14:00:00,
2013-02-03 08:02:00,32.3,29.4,30.32,South,172,0.0,1.0,89,0.00,,---,0.00,VWS V14.01,2013-02-03 14:02:00,
2013-02-03 08:05:00,32.7,29.8,30.32,South,172,0.0,1.0,89,0.00,,---,0.00,VWS V14.01,2013-02-03 14:05:00,
2013-02-03 08:08:00,33.1,30.2,30.32,South,172,0.0,1.0,89,0.00,,---,0.00,VWS V14.01,2013-02-03 14:08:00,
2013-02-03 08:11:00,33.6,30.7,30.32,South,172,0.0,1.0,89,0.00,,---,0.00,VWS V14.01,2013-02-03 14:11:00,
2013-02-03 08:14:00,34.2,31.3,30.32,South,172,0.0,1.0,89,0.00,,---,0.00,VWS V14.01,2013-02-03 14:14:00,
2013-02-03 08:17:00,35.0,32.4,30.32,South,172,0.0,1.0,90,0.00,,---,0.00,VWS V14.01,2013-02-03 14:17:00,
2013-02-03 08:20:00,35.9,33.3,30.32,South,172,0.0,1.0,90,0.00,,---,0.00,VWS V14.01,2013-02-03 14:20:00,
2013-02-03 08:23:00,36.8,33.3,30.32,South,172,0.0,2.0,87,0.00,,---,0.00,VWS V14.01,2013-02-03 14:23:00,
2013-02-03 08:26:00,37.5,33.7,30.33,South,172,0.0,2.0,86,0.00,,---,0.00,VWS V14.01,2013-02-03 14:26:00,
2013-02-03 08:29:00,38.3,34.2,30.32,South,172,0.0,2.0,85,0.00,,---,0.00,VWS V14.01,2013-02-03 14:29:00,
2013-02-03 08:30:00,38.5,34.4,30.32,South,172,0.0,2.0,85,0.00,,---,0.00,VWS V14.01,2013-02-03 14:30:00,
2013-02-03 08:32:00,39.2,35.4,30.32,South,172,0.0,0.0,86,0.00,,---,0.00,VWS V14.01,2013-02-03 14:32:00,
2013-02-03 08:35:00,40.2,35.5,30.32,South,172,0.0,1.0,83,0.00,,---,0.00,VWS V14.01,2013-02-03 14:35:00,
2013-02-03 08:38:00,41.0,35.9,30.32,South,172,0.0,1.0,82,0.00,,---,0.00,VWS V14.01,2013-02-03 14:38:00,
2013-02-03 08:41:00,41.8,35.8,30.32,South,172,1.0,1.0,79,0.00,,---,0.00,VWS V14.01,2013-02-03 14:41:00,
2013-02-03 08:44:00,42.7,35.7,30.32,South,172,0.0,1.0,76,0.00,,---,0.00,VWS V14.01,2013-02-03 14:44:00,
2013-02-03 08:47:00,43.6,36.2,30.32,South,172,0.0,1.0,75,0.00,,---,0.00,VWS V14.01,2013-02-03 14:47:00,
2013-02-03 08:50:00,44.6,36.8,30.32,South,172,1.0,1.0,74,0.00,,---,0.00,VWS V14.01,2013-02-03 14:50:00,
2013-02-03 08:53:00,45.4,37.6,30.32,South,172,0.0,1.0,74,0.00,,---,0.00,VWS V14.01,2013-02-03 14:53:00,
2013-02-03 08:56:00,46.3,37.4,30.32,South,172,0.0,2.0,71,0.00,,---,0.00,VWS V14.01,2013-02-03 14:56:00,
2013-02-03 08:59:00,47.3,38.4,30.32,South,172,0.0,2.0,71,0.00,,---,0.00,VWS V14.01,2013-02-03 14:59:00,
2013-02-03 09:00:00,47.5,37.8,30.32,South,184,3.0,3.0,69,0.00,,---,0.00,VWS V14.01,2013-02-03 15:00:00,
2013-02-03 09:02:00,48.6,37.8,30.32,SSW,205,1.0,3.0,66,0.00,,---,0.00,VWS V14.01,2013-02-03 15:02:00,
2013-02-03 09:05:00,49.6,37.9,30.32,SW,219,4.0,4.0,64,0.00,,---,0.00,VWS V14.01,2013-02-03 15:05:00,
2013-02-03 09:08:00,50.8,37.8,30.32,SSW,203,2.0,6.0,61,0.00,,---,0.00,VWS V14.01,2013-02-03 15:08:00,
2013-02-03 09:11:00,51.9,38.0,30.32,SSW,200,4.0,6.0,59,0.00,,---,0.00,VWS V14.01,2013-02-03 15:11:00,
2013-02-03 09:14:00,52.9,38.5,30.32,SSW,193,4.0,6.0,58,0.00,,---,0.00,VWS V14.01,2013-02-03 15:14:00,
2013-02-03 09:17:00,53.6,37.4,30.31,SSW,204,3.0,6.0,54,0.00,,---,0.00,VWS V14.01,2013-02-03 15:17:00,
2013-02-03 09:20:00,54.1,36.9,30.31,SSW,200,2.0,6.0,52,0.00,,---,0.00,VWS V14.01,2013-02-03 15:20:00,
2013-02-03 09:23:00,54.7,37.4,30.31,SSW,205,2.0,6.0,52,0.00,,---,0.00,VWS V14.01,2013-02-03 15:23:00,
2013-02-03 09:26:00,55.5,38.7,30.31,SSW,201,2.0,6.0,53,0.00,,---,0.00,VWS V14.01,2013-02-03 15:26:00,
2013-02-03 09:29:00,56.5,37.1,30.31,SSW,199,2.0,6.0,48,0.00,,---,0.00,VWS V14.01,2013-02-03 15:29:00,
2013-02-03 09:30:00,56.5,37.1,30.31,SSW,199,2.0,6.0,48,0.00,,---,0.00,VWS V14.01,2013-02-03 15:30:00,
2013-02-03 09:32:00,57.4,36.2,30.31,SSW,199,4.0,5.0,45,0.00,,---,0.00,VWS V14.01,2013-02-03 15:32:00,
2013-02-03 09:35:00,58.1,36.9,30.31,SSW,197,1.0,5.0,45,0.00,,---,0.00,VWS V14.01,2013-02-03 15:35:00,
2013-02-03 09:38:00,58.9,35.9,30.30,SSW,194,5.0,7.0,42,0.00,,---,0.00,VWS V14.01,2013-02-03 15:38:00,
2013-02-03 09:41:00,59.9,33.6,30.30,SSW,196,5.0,7.0,37,0.00,,---,0.00,VWS V14.01,2013-02-03 15:41:00,
2013-02-03 09:44:00,60.5,33.4,30.30,South,178,4.0,7.0,36,0.00,,---,0.00,VWS V14.01,2013-02-03 15:44:00,
2013-02-03 09:47:00,61.0,33.2,30.30,SSE,149,6.0,9.0,35,0.00,,---,0.00,VWS V14.01,2013-02-03 15:47:00,
2013-02-03 09:50:00,61.7,31.6,30.30,SSW,197,6.0,9.0,32,0.00,,---,0.00,VWS V14.01,2013-02-03 15:50:00,
2013-02-03 09:54:00,62.2,30.4,30.30,SSW,192,7.0,9.0,30,0.00,,---,0.00,VWS V14.01,2013-02-03 15:54:00,
2013-02-03 12:05:00,68.9,25.0,30.23,South,176,9.0,14.0,19,0.00,,---,0.00,VWS V14.01,2013-02-03 18:05:00,
2013-02-03 12:08:00,69.0,25.1,30.23,South,188,12.0,17.0,19,0.00,,---,0.00,VWS V14.01,2013-02-03 18:08:00,
2013-02-03 12:11:00,69.0,25.1,30.23,SSE,156,8.0,17.0,19,0.00,,---,0.00,VWS V14.01,2013-02-03 18:11:00,
2013-02-03 12:14:00,69.0,25.1,30.22,South,190,10.0,17.0,19,0.00,,---,0.00,VWS V14.01,2013-02-03 18:14:00,
2013-02-03 12:17:00,69.1,23.9,30.22,SSE,167,11.0,17.0,18,0.00,,---,0.00,VWS V14.01,2013-02-03 18:17:00,
2013-02-03 12:20:00,68.8,23.6,30.22,South,174,11.0,17.0,18,0.00,,---,0.00,VWS V14.01,2013-02-03 18:20:00,
2013-02-03 12:23:00,68.8,24.9,30.21,SSW,207,8.0,17.0,19,0.00,,---,0.00,VWS V14.01,2013-02-03 18:23:00,
2013-02-03 12:26:00,69.1,23.9,30.21,SE,140,5.0,17.0,18,0.00,,---,0.00,VWS V14.01,2013-02-03 18:26:00,
2013-02-03 12:29:00,69.6,22.9,30.21,SSE,150,9.0,17.0,17,0.00,,---,0.00,VWS V14.01,2013-02-03 18:29:00,
2013-02-03 12:30:00,69.7,24.3,30.21,SSE,161,6.0,17.0,18,0.00,,---,0.00,VWS V14.01,2013-02-03 18:30:00,
2013-02-03 12:32:00,69.9,24.5,30.20,SSE,164,6.0,11.0,18,0.00,,---,0.00,VWS V14.01,2013-02-03 18:32:00,
2013-02-03 12:35:00,70.1,23.3,30.20,SE,143,10.0,16.0,17,0.00,,---,0.00,VWS V14.01,2013-02-03 18:35:00,
2013-02-03 12:38:00,69.7,23.0,30.20,South,180,7.0,16.0,17,0.00,,---,0.00,VWS V14.01,2013-02-03 18:38:00,
2013-02-03 12:41:00,69.5,24.2,30.20,SSE,157,12.0,16.0,18,0.00,,---,0.00,VWS V14.01,2013-02-03 18:41:00,
2013-02-03 12:44:00,69.6,24.2,30.19,South,169,8.0,16.0,18,0.00,,---,0.00,VWS V14.01,2013-02-03 18:44:00,
2013-02-03 12:47:00,69.6,21.5,30.19,SSE,161,10.0,16.0,16,0.00,,---,0.00,VWS V14.01,2013-02-03 18:47:00,
2013-02-03 12:50:00,69.5,22.8,30.19,SSE,161,6.0,16.0,17,0.00,,---,0.00,VWS V14.01,2013-02-03 18:50:00,
2013-02-03 12:53:00,69.7,21.5,30.18,SSW,194,8.0,16.0,16,0.00,,---,0.00,VWS V14.01,2013-02-03 18:53:00,
2013-02-03 12:56:00,69.7,21.5,30.18,South,179,7.0,16.0,16,0.00,,---,0.00,VWS V14.01,2013-02-03 18:56:00,
2013-02-03 12:59:00,69.6,24.2,30.18,SE,136,10.0,16.0,18,0.00,,---,0.00,VWS V14.01,2013-02-03 18:59:00,
2013-02-03 13:00:00,69.6,21.5,30.18,SE,146,7.0,16.0,16,0.00,,---,0.00,VWS V14.01,2013-02-03 19:00:00,
2013-02-03 13:02:00,69.7,24.3,30.18,SSW,206,11.0,12.0,18,0.00,,---,0.00,VWS V14.01,2013-02-03 19:02:00,
2013-02-03 13:05:00,69.8,23.1,30.18,SSE,153,5.0,13.0,17,0.00,,---,0.00,VWS V14.01,2013-02-03 19:05:00,
2013-02-03 13:08:00,69.7,23.0,30.17,SE,140,4.0,13.0,17,0.00,,---,0.00,VWS V14.01,2013-02-03 19:08:00,
2013-02-03 13:11:00,69.9,24.5,30.17,SSE,161,13.0,13.0,18,0.00,,---,0.00,VWS V14.01,2013-02-03 19:11:00,
2013-02-03 13:14:00,69.7,24.3,30.17,South,182,9.0,13.0,18,0.00,,---,0.00,VWS V14.01,2013-02-03 19:14:00,
2013-02-03 13:17:00,69.5,24.2,30.17,SSW,202,12.0,17.0,18,0.00,,---,0.00,VWS V14.01,2013-02-03 19:17:00,
2013-02-03 13:20:00,69.6,24.2,30.16,SE,136,6.0,17.0,18,0.00,,---,0.00,VWS V14.01,2013-02-03 19:20:00,
2013-02-03 13:23:00,69.8,24.4,30.16,South,178,10.0,19.0,18,0.00,,---,0.00,VWS V14.01,2013-02-03 19:23:00,
2013-02-03 13:26:00,70.0,24.6,30.16,SSE,150,11.0,19.0,18,0.00,,---,0.00,VWS V14.01,2013-02-03 19:26:00,
2013-02-03 13:29:00,70.0,24.6,30.15,SSE,153,9.0,19.0,18,0.00,,---,0.00,VWS V14.01,2013-02-03 19:29:00,
2013-02-03 13:30:00,70.0,24.6,30.15,SSE,162,8.0,19.0,18,0.00,,---,0.00,VWS V14.01,2013-02-03 19:30:00,
2013-02-03 13:32:00,69.9,24.5,30.15,WSW,248,8.0,14.0,18,0.00,,---,0.00,VWS V14.01,2013-02-03 19:32:00,
2013-02-03 13:35:00,69.9,25.8,30.15,SSW,197,8.0,16.0,19,0.00,,---,0.00,VWS V14.01,2013-02-03 19:35:00,
2013-02-03 13:38:00,70.2,24.7,30.14,SSW,196,13.0,16.0,18,0.00,,---,0.00,VWS V14.01,2013-02-03 19:38:00,
2013-02-03 13:41:00,70.2,23.4,30.14,SSW,196,8.0,17.0,17,0.00,,---,0.00,VWS V14.01,2013-02-03 19:41:00,
2013-02-03 13:44:00,70.0,21.8,30.14,South,186,9.0,19.0,16,0.00,,---,0.00,VWS V14.01,2013-02-03 19:44:00,
2013-02-03 13:47:00,69.8,23.1,30.14,South,182,10.0,19.0,17,0.00,,---,0.00,VWS V14.01,2013-02-03 19:47:00,
2013-02-03 13:50:00,69.8,24.4,30.14,SSE,167,14.0,19.0,18,0.00,,---,0.00,VWS V14.01,2013-02-03 19:50:00,
2013-02-03 13:54:00,69.7,21.5,30.14,SSW,192,9.0,19.0,16,0.00,,---,0.00,VWS V14.01,2013-02-03 19:54:00,
2013-02-03 13:57:00,69.7,21.5,30.13,SSE,159,8.0,19.0,16,0.00,,---,0.00,VWS V14.01,2013-02-03 19:57:00,
2013-02-03 14:00:00,69.7,21.5,30.13,South,173,11.0,19.0,16,0.00,,---,0.00,VWS V14.01,2013-02-03 20:00:00,
2013-02-03 14:03:00,69.5,22.8,30.13,South,187,7.0,18.0,17,0.00,,---,0.00,VWS V14.01,2013-02-03 20:03:00,
2013-02-03 14:06:00,69.9,23.1,30.13,South,169,7.0,18.0,17,0.00,,---,0.00,VWS V14.01,2013-02-03 20:06:00,
2013-02-03 14:09:00,69.8,23.1,30.13,South,181,6.0,18.0,17,0.00,,---,0.00,VWS V14.01,2013-02-03 20:09:00,
2013-02-03 14:12:00,69.3,21.2,30.13,South,169,13.0,18.0,16,0.00,,---,0.00,VWS V14.01,2013-02-03 20:12:00,
2013-02-03 14:15:00,68.0,21.6,30.12,South,183,9.0,18.0,17,0.00,,---,0.00,VWS V14.01,2013-02-03 20:15:00,
2013-02-03 14:18:00,67.0,22.1,30.12,South,173,7.0,18.0,18,0.00,,---,0.00,VWS V14.01,2013-02-03 20:18:00,
2013-02-03 14:21:00,66.4,22.9,30.12,SSE,165,10.0,18.0,19,0.00,,---,0.00,VWS V14.01,2013-02-03 20:21:00,
2013-02-03 14:24:00,66.2,24.0,30.12,South,184,9.0,18.0,20,0.00,,---,0.00,VWS V14.01,2013-02-03 20:24:00,
2013-02-03 14:27:00,66.1,23.9,30.12,SSE,158,6.0,18.0,20,0.00,,---,0.00,VWS V14.01,2013-02-03 20:27:00,
2013-02-03 14:30:00,66.3,25.2,30.12,South,191,7.0,18.0,21,0.00,,---,0.00,VWS V14.01,2013-02-03 20:30:00,
2013-02-03 14:33:00,66.6,24.3,30.11,SSE,157,8.0,12.0,20,0.00,,---,0.00,VWS V14.01,2013-02-03 20:33:00,
2013-02-03 14:36:00,67.1,23.5,30.11,SSE,153,9.0,12.0,19,0.00,,---,0.00,VWS V14.01,2013-02-03 20:36:00,
2013-02-03 14:39:00,67.8,25.3,30.11,SSE,164,10.0,13.0,20,0.00,,---,0.00,VWS V14.01,2013-02-03 20:39:00,
2013-02-03 14:42:00,68.5,25.9,30.11,SSE,151,11.0,15.0,20,0.00,,---,0.00,VWS V14.01,2013-02-03 20:42:00,
2013-02-03 14:45:00,68.8,24.9,30.10,SSE,164,11.0,16.0,19,0.00,,---,0.00,VWS V14.01,2013-02-03 20:45:00,
2013-02-03 14:48:00,68.7,23.5,30.10,SSE,163,15.0,16.0,18,0.00,,---,0.00,VWS V14.01,2013-02-03 20:48:00,
2013-02-03 14:51:00,68.6,24.7,30.10,SSE,153,8.0,16.0,19,0.00,,---,0.00,VWS V14.01,2013-02-03 20:51:00,
2013-02-03 14:54:00,68.9,23.7,30.10,SE,143,10.0,17.0,18,0.00,,---,0.00,VWS V14.01,2013-02-03 20:54:00,
2013-02-03 14:57:00,69.2,23.9,30.10,SSE,148,11.0,18.0,18,0.00,,---,0.00,VWS V14.01,2013-02-03 20:57:00,
2013-02-03 15:00:00,69.1,23.9,30.10,SE,145,8.0,18.0,18,0.00,,---,0.00,VWS V14.01,2013-02-03 21:00:00,
2013-02-03 15:03:00,69.0,23.8,30.09,SSE,159,11.0,17.0,18,0.00,,---,0.00,VWS V14.01,2013-02-03 21:03:00,
2013-02-03 15:06:00,68.4,24.6,30.09,SSE,167,9.0,17.0,19,0.00,,---,0.00,VWS V14.01,2013-02-03 21:06:00,
2013-02-03 15:09:00,68.4,24.6,30.09,South,171,6.0,17.0,19,0.00,,---,0.00,VWS V14.01,2013-02-03 21:09:00,
2013-02-03 15:12:00,68.7,26.0,30.09,South,171,7.0,17.0,20,0.00,,---,0.00,VWS V14.01,2013-02-03 21:12:00,
2013-02-03 15:15:00,69.3,26.5,30.09,South,173,9.0,17.0,20,0.00,,---,0.00,VWS V14.01,2013-02-03 21:15:00,
2013-02-03 15:18:00,69.6,26.8,30.09,SSE,157,11.0,17.0,20,0.00,,---,0.00,VWS V14.01,2013-02-03 21:18:00,
2013-02-03 15:21:00,69.4,25.4,30.09,SSE,161,9.0,17.0,19,0.00,,---,0.00,VWS V14.01,2013-02-03 21:21:00,
2013-02-03 15:24:00,68.7,26.0,30.08,SSE,151,10.0,17.0,20,0.00,,---,0.00,VWS V14.01,2013-02-03 21:24:00,
2013-02-03 15:27:00,68.2,25.6,30.08,South,180,9.0,17.0,20,0.00,,---,0.00,VWS V14.01,2013-02-03 21:27:00,
2013-02-03 15:30:00,68.3,26.9,30.08,SSE,154,13.0,18.0,21,0.00,,---,0.00,VWS V14.01,2013-02-03 21:30:00,
2013-02-03 15:33:00,68.8,26.1,30.08,SSE,162,12.0,17.0,20,0.00,,---,0.00,VWS V14.01,2013-02-03 21:33:00,
2013-02-03 15:36:00,68.9,26.2,30.07,SSE,167,12.0,17.0,20,0.00,,---,0.00,VWS V14.01,2013-02-03 21:36:00,
2013-02-03 15:39:00,68.8,26.1,30.07,South,180,12.0,17.0,20,0.00,,---,0.00,VWS V14.01,2013-02-03 21:39:00,
2013-02-03 15:42:00,68.4,25.8,30.07,SSE,153,10.0,17.0,20,0.00,,---,0.00,VWS V14.01,2013-02-03 21:42:00,
2013-02-03 15:45:00,68.1,25.5,30.07,SE,144,9.0,17.0,20,0.00,,---,0.00,VWS V14.01,2013-02-03 21:45:00,
2013-02-03 15:48:00,68.3,25.7,30.06,SSE,168,11.0,17.0,20,0.00,,---,0.00,VWS V14.01,2013-02-03 21:48:00,
2013-02-03 15:51:00,68.0,25.5,30.06,SE,143,12.0,17.0,20,0.00,,---,0.00,VWS V14.01,2013-02-03 21:51:00,
2013-02-03 15:54:00,67.4,26.1,30.07,SSE,151,4.0,17.0,21,0.00,,---,0.00,VWS V14.01,2013-02-03 21:54:00,
2013-02-03 15:58:00,67.1,24.7,30.06,SSW,199,6.0,17.0,20,0.00,,---,0.00,VWS V14.01,2013-02-03 21:58:00,
2013-02-03 16:00:00,67.1,25.9,30.06,SSE,161,9.0,17.0,21,0.00,,---,0.00,VWS V14.01,2013-02-03 22:00:00,
2013-02-03 16:01:00,67.1,25.9,30.06,SSW,196,7.0,10.0,21,0.00,,---,0.00,VWS V14.01,2013-02-03 22:01:00,
2013-02-03 16:04:00,67.3,26.1,30.06,SE,134,9.0,16.0,21,0.00,,---,0.00,VWS V14.01,2013-02-03 22:04:00,
2013-02-03 16:07:00,67.6,26.3,30.06,SSE,148,10.0,16.0,21,0.00,,---,0.00,VWS V14.01,2013-02-03 22:07:00,
2013-02-03 16:10:00,67.4,25.0,30.07,South,170,11.0,16.0,20,0.00,,---,0.00,VWS V14.01,2013-02-03 22:10:00,
2013-02-03 16:13:00,67.0,25.8,30.07,South,170,8.0,16.0,21,0.00,,---,0.00,VWS V14.01,2013-02-03 22:13:00,
2013-02-03 16:16:00,66.7,25.6,30.06,SSE,155,10.0,16.0,21,0.00,,---,0.00,VWS V14.01,2013-02-03 22:16:00,
2013-02-03 16:19:00,66.5,25.4,30.06,North,360,9.0,16.0,21,0.00,,---,0.00,VWS V14.01,2013-02-03 22:19:00,
2013-02-03 16:22:00,66.4,26.4,30.06,South,173,4.0,16.0,22,0.00,,---,0.00,VWS V14.01,2013-02-03 22:22:00,
2013-02-03 16:25:00,66.2,26.3,30.06,South,177,5.0,16.0,22,0.00,,---,0.00,VWS V14.01,2013-02-03 22:25:00,
2013-02-03 16:28:00,66.0,26.1,30.06,SSE,151,8.0,16.0,22,0.00,,---,0.00,VWS V14.01,2013-02-03 22:28:00,
2013-02-03 16:30:00,66.0,27.2,30.06,SSE,166,4.0,16.0,23,0.00,,---,0.00,VWS V14.01,2013-02-03 22:30:00,
2013-02-03 16:31:00,66.0,27.2,30.06,SSW,203,5.0,5.0,23,0.00,,---,0.00,VWS V14.01,2013-02-03 22:31:00,
2013-02-03 16:34:00,66.1,26.2,30.05,South,174,4.0,11.0,22,0.00,,---,0.00,VWS V14.01,2013-02-03 22:34:00,
2013-02-03 16:37:00,66.3,27.4,30.05,South,173,8.0,13.0,23,0.00,,---,0.00,VWS V14.01,2013-02-03 22:37:00,
2013-02-03 16:40:00,66.3,26.4,30.05,SSE,154,11.0,13.0,22,0.00,,---,0.00,VWS V14.01,2013-02-03 22:40:00,
2013-02-03 16:43:00,66.3,27.4,30.05,South,171,7.0,15.0,23,0.00,,---,0.00,VWS V14.01,2013-02-03 22:43:00,
2013-02-03 16:46:00,66.2,26.3,30.05,SSE,157,8.0,15.0,22,0.00,,---,0.00,VWS V14.01,2013-02-03 22:46:00,
2013-02-03 16:49:00,66.2,27.3,30.05,South,176,11.0,15.0,23,0.00,,---,0.00,VWS V14.01,2013-02-03 22:49:00,
2013-02-03 16:52:00,66.0,27.2,30.05,South,171,10.0,15.0,23,0.00,,---,0.00,VWS V14.01,2013-02-03 22:52:00,
2013-02-03 16:55:00,65.8,27.0,30.05,SSE,157,10.0,15.0,23,0.00,,---,0.00,VWS V14.01,2013-02-03 22:55:00,
2013-02-03 16:58:00,65.6,26.8,30.05,South,178,5.0,15.0,23,0.00,,---,0.00,VWS V14.01,2013-02-03 22:58:00,
2013-02-03 17:00:00,65.5,26.8,30.05,South,184,7.0,15.0,23,0.00,,---,0.00,VWS V14.01,2013-02-03 23:00:00,
2013-02-03 17:01:00,65.4,26.7,30.04,South,169,11.0,14.0,23,0.00,,---,0.00,VWS V14.01,2013-02-03 23:01:00,
2013-02-03 17:04:00,65.2,27.5,30.05,South,183,9.0,14.0,24,0.00,,---,0.00,VWS V14.01,2013-02-03 23:04:00,
2013-02-03 17:07:00,65.0,26.3,30.04,SE,145,9.0,14.0,23,0.00,,---,0.00,VWS V14.01,2013-02-03 23:07:00,
2013-02-03 17:10:00,64.8,27.2,30.04,SSE,148,6.0,15.0,24,0.00,,---,0.00,VWS V14.01,2013-02-03 23:10:00,
2013-02-03 17:13:00,64.7,27.1,30.04,South,176,7.0,15.0,24,0.00,,---,0.00,VWS V14.01,2013-02-03 23:13:00,
2013-02-03 17:16:00,64.5,26.9,30.04,South,170,8.0,15.0,24,0.00,,---,0.00,VWS V14.01,2013-02-03 23:16:00,
2013-02-03 17:19:00,64.4,26.9,30.04,South,174,5.0,15.0,24,0.00,,---,0.00,VWS V14.01,2013-02-03 23:19:00,
2013-02-03 17:22:00,64.3,26.8,30.04,SSE,167,5.0,15.0,24,0.00,,---,0.00,VWS V14.01,2013-02-03 23:22:00,
2013-02-03 17:25:00,64.2,26.7,30.03,SE,128,7.0,15.0,24,0.00,,---,0.00,VWS V14.01,2013-02-03 23:25:00,
2013-02-03 17:28:00,64.1,26.6,30.03,South,178,6.0,15.0,24,0.00,,---,0.00,VWS V14.01,2013-02-03 23:28:00,
2013-02-03 17:30:00,64.0,26.5,30.03,SSE,153,5.0,15.0,24,0.00,,---,0.00,VWS V14.01,2013-02-03 23:30:00,
2013-02-03 17:31:00,63.9,26.4,30.03,SSE,158,5.0,10.0,24,0.00,,---,0.00,VWS V14.01,2013-02-03 23:31:00,
2013-02-03 17:34:00,63.8,26.3,30.03,SSE,165,4.0,11.0,24,0.00,,---,0.00,VWS V14.01,2013-02-03 23:34:00,
2013-02-03 17:37:00,63.6,26.2,30.03,SSE,148,8.0,11.0,24,0.00,,---,0.00,VWS V14.01,2013-02-03 23:37:00,
2013-02-03 17:40:00,63.4,26.0,30.04,South,169,9.0,11.0,24,0.00,,---,0.00,VWS V14.01,2013-02-03 23:40:00,
2013-02-03 17:43:00,63.3,25.9,30.03,SSE,159,5.0,11.0,24,0.00,,---,0.00,VWS V14.01,2013-02-03 23:43:00,
2013-02-03 17:46:00,63.2,26.8,30.03,SSE,155,7.0,11.0,25,0.00,,---,0.00,VWS V14.01,2013-02-03 23:46:00,
2013-02-03 17:49:00,63.0,26.6,30.03,SSE,165,8.0,11.0,25,0.00,,---,0.00,VWS V14.01,2013-02-03 23:49:00,
2013-02-03 17:53:00,63.0,26.6,30.03,SE,146,4.0,11.0,25,0.00,,---,0.00,VWS V14.01,2013-02-03 23:53:00,
2013-02-03 17:56:00,62.9,26.6,30.03,SSE,164,10.0,11.0,25,0.00,,---,0.00,VWS V14.01,2013-02-03 23:56:00,
2013-02-03 17:59:00,62.8,27.4,30.03,SSE,163,9.0,11.0,26,0.00,,---,0.00,VWS V14.01,2013-02-03 23:59:00,
2013-02-03 18:00:00,62.8,26.5,30.03,SSE,163,5.0,17.0,25,0.00,,---,0.00,VWS V14.01,2013-02-04 00:00:00,
2013-02-03 18:02:00,62.8,26.5,30.03,SSE,165,3.0,12.0,25,0.00,,---,0.00,VWS V14.01,2013-02-04 00:02:00,
2013-02-03 18:05:00,62.7,27.4,30.03,South,172,6.0,12.0,26,0.00,,---,0.00,VWS V14.01,2013-02-04 00:05:00,
2013-02-03 18:08:00,62.6,27.3,30.03,SSE,153,11.0,12.0,26,0.00,,---,0.00,VWS V14.01,2013-02-04 00:08:00,
2013-02-03 18:11:00,62.6,27.3,30.03,SSE,165,7.0,12.0,26,0.00,,---,0.00,VWS V14.01,2013-02-04 00:11:00,
2013-02-03 18:14:00,62.5,27.2,30.03,SSE,158,7.0,12.0,26,0.00,,---,0.00,VWS V14.01,2013-02-04 00:14:00,
2013-02-03 18:17:00,62.4,27.1,30.02,SE,146,6.0,12.0,26,0.00,,---,0.00,VWS V14.01,2013-02-04 00:17:00,
2013-02-03 18:20:00,62.3,27.0,30.03,SSE,147,6.0,13.0,26,0.00,,---,0.00,VWS V14.01,2013-02-04 00:20:00,
2013-02-03 21:09:00,59.6,27.3,29.96,SSE,155,5.0,11.0,29,0.00,,---,0.00,VWS V14.01,2013-02-04 03:09:00,
2013-02-03 21:12:00,59.8,27.5,29.95,SSE,156,8.0,14.0,29,0.00,,---,0.00,VWS V14.01,2013-02-04 03:12:00,
2013-02-03 21:15:00,59.9,27.6,29.95,SE,142,5.0,14.0,29,0.00,,---,0.00,VWS V14.01,2013-02-04 03:15:00,
2013-02-03 21:18:00,59.9,27.6,29.95,SSE,152,7.0,14.0,29,0.00,,---,0.00,VWS V14.01,2013-02-04 03:18:00,
2013-02-03 21:21:00,59.9,27.6,29.96,SSE,155,6.0,14.0,29,0.00,,---,0.00,VWS V14.01,2013-02-04 03:21:00,
2013-02-03 21:24:00,60.0,27.7,29.95,SE,143,8.0,14.0,29,0.00,,---,0.00,VWS V14.01,2013-02-04 03:24:00,
2013-02-03 21:27:00,59.9,28.4,29.95,SSE,155,7.0,14.0,30,0.00,,---,0.00,VWS V14.01,2013-02-04 03:27:00,
2013-02-03 21:30:00,60.0,27.7,29.95,SSE,150,10.0,14.0,29,0.00,,---,0.00,VWS V14.01,2013-02-04 03:30:00,
2013-02-03 21:34:00,60.1,28.6,29.95,SE,133,8.0,14.0,30,0.00,,---,0.00,VWS V14.01,2013-02-04 03:34:00,
2013-02-03 21:37:00,60.1,28.6,29.95,SSE,161,6.0,14.0,30,0.00,,---,0.00,VWS V14.01,2013-02-04 03:37:00,
2013-02-03 21:40:00,60.1,28.6,29.95,SSE,162,8.0,14.0,30,0.00,,---,0.00,VWS V14.01,2013-02-04 03:40:00,
2013-02-03 21:43:00,60.1,28.6,29.95,SSE,166,6.0,14.0,30,0.00,,---,0.00,VWS V14.01,2013-02-04 03:43:00,
2013-02-03 21:46:00,60.2,28.7,29.95,South,179,7.0,14.0,30,0.00,,---,0.00,VWS V14.01,2013-02-04 03:46:00,
2013-02-03 21:49:00,60.2,28.7,29.95,South,169,5.0,14.0,30,0.00,,---,0.00,VWS V14.01,2013-02-04 03:49:00,
2013-02-03 21:52:00,60.3,28.8,29.95,South,173,7.0,14.0,30,0.00,,---,0.00,VWS V14.01,2013-02-04 03:52:00,
2013-02-03 21:55:00,60.2,29.5,29.95,SSE,150,5.0,14.0,31,0.00,,---,0.00,VWS V14.01,2013-02-04 03:55:00,
2013-02-03 21:58:00,60.2,29.5,29.94,SSE,153,6.0,14.0,31,0.00,,---,0.00,VWS V14.01,2013-02-04 03:58:00,
2013-02-03 22:00:00,60.2,29.5,29.94,SE,146,10.0,14.0,31,0.00,,---,0.00,VWS V14.01,2013-02-04 04:00:00,
2013-02-03 22:01:00,60.2,29.5,29.94,SSE,164,10.0,12.0,31,0.00,,---,0.00,VWS V14.01,2013-02-04 04:01:00,
2013-02-03 22:04:00,60.2,29.5,29.94,SSE,166,10.0,13.0,31,0.00,,---,0.00,VWS V14.01,2013-02-04 04:04:00,
2013-02-03 22:07:00,60.2,30.2,29.94,South,173,4.0,13.0,32,0.00,,---,0.00,VWS V14.01,2013-02-04 04:07:00,
2013-02-03 22:10:00,60.2,30.2,29.95,South,176,7.0,13.0,32,0.00,,---,0.00,VWS V14.01,2013-02-04 04:10:00,
2013-02-03 22:13:00,60.2,30.2,29.95,South,182,5.0,13.0,32,0.00,,---,0.00,VWS V14.01,2013-02-04 04:13:00,
2013-02-03 22:16:00,60.2,31.0,29.94,SSE,153,6.0,13.0,33,0.00,,---,0.00,VWS V14.01,2013-02-04 04:16:00,
2013-02-03 22:19:00,60.0,30.8,29.94,South,178,4.0,13.0,33,0.00,,---,0.00,VWS V14.01,2013-02-04 04:19:00,
2013-02-03 22:22:00,59.9,31.5,29.94,SSE,156,7.0,13.0,34,0.00,,---,0.00,VWS V14.01,2013-02-04 04:22:00,
2013-02-03 22:25:00,59.9,31.5,29.94,South,173,3.0,13.0,34,0.00,,---,0.00,VWS V14.01,2013-02-04 04:25:00,
2013-02-03 22:28:00,60.0,32.3,29.94,SSE,147,6.0,13.0,35,0.00,,---,0.00,VWS V14.01,2013-02-04 04:28:00,
2013-02-03 22:30:00,60.0,32.3,29.94,SSE,153,4.0,13.0,35,0.00,,---,0.00,VWS V14.01,2013-02-04 04:30:00,
2013-02-03 22:31:00,60.0,32.3,29.95,SSW,196,5.0,10.0,35,0.00,,---,0.00,VWS V14.01,2013-02-04 04:31:00,
2013-02-03 22:34:00,59.9,32.2,29.95,South,169,4.0,10.0,35,0.00,,---,0.00,VWS V14.01,2013-02-04 04:34:00,
2013-02-03 22:40:00,59.8,32.8,29.95,South,189,4.0,10.0,36,0.00,,---,0.00,VWS V14.01,2013-02-04 04:40:00,
2013-02-03 22:43:00,59.7,32.7,29.95,SSE,164,6.0,10.0,36,0.00,,---,0.00,VWS V14.01,2013-02-04 04:43:00,
2013-02-03 22:46:00,59.7,33.4,29.95,South,169,4.0,12.0,37,0.00,,---,0.00,VWS V14.01,2013-02-04 04:46:00,
2013-02-03 22:49:00,59.6,34.0,29.95,South,173,4.0,12.0,38,0.00,,---,0.00,VWS V14.01,2013-02-04 04:49:00,
2013-02-03 22:52:00,59.6,34.0,29.95,South,171,4.0,12.0,38,0.00,,---,0.00,VWS V14.01,2013-02-04 04:52:00,
2013-02-03 22:55:00,59.6,34.0,29.95,SSE,157,5.0,12.0,38,0.00,,---,0.00,VWS V14.01,2013-02-04 04:55:00,
2013-02-03 22:58:00,59.5,34.5,29.95,South,172,3.0,12.0,39,0.00,,---,0.00,VWS V14.01,2013-02-04 04:58:00,
2013-02-03 23:00:00,59.6,35.3,29.95,South,173,5.0,12.0,40,0.00,,---,0.00,VWS V14.01,2013-02-04 05:00:00,
2013-02-03 23:01:00,59.7,35.4,29.95,South,184,5.0,10.0,40,0.00,,---,0.00,VWS V14.01,2013-02-04 05:01:00,
2013-02-03 23:04:00,59.8,35.5,29.95,SSE,168,4.0,10.0,40,0.00,,---,0.00,VWS V14.01,2013-02-04 05:04:00,
2013-02-03 23:07:00,59.8,35.5,29.95,SSE,163,5.0,10.0,40,0.00,,---,0.00,VWS V14.01,2013-02-04 05:07:00,
2013-02-03 23:10:00,59.8,36.1,29.95,South,171,2.0,10.0,41,0.00,,---,0.00,VWS V14.01,2013-02-04 05:10:00,
2013-02-03 23:13:00,59.8,36.1,29.95,South,180,2.0,10.0,41,0.00,,---,0.00,VWS V14.01,2013-02-04 05:13:00,
2013-02-03 23:16:00,59.8,36.1,29.95,SSE,167,3.0,10.0,41,0.00,,---,0.00,VWS V14.01,2013-02-04 05:16:00,
2013-02-03 23:19:00,59.8,36.7,29.95,SSE,163,5.0,10.0,42,0.00,,---,0.00,VWS V14.01,2013-02-04 05:19:00,
2013-02-03 23:22:00,59.9,36.8,29.95,SSE,151,6.0,14.0,42,0.00,,---,0.00,VWS V14.01,2013-02-04 05:22:00,
2013-02-03 23:25:00,59.9,36.8,29.95,South,172,5.0,14.0,42,0.00,,---,0.00,VWS V14.01,2013-02-04 05:25:00,
2013-02-03 23:28:00,59.9,36.8,29.95,SSE,159,6.0,14.0,42,0.00,,---,0.00,VWS V14.01,2013-02-04 05:28:00,
2013-02-03 23:30:00,59.9,36.8,29.94,South,169,4.0,14.0,42,0.00,,---,0.00,VWS V14.01,2013-02-04 05:30:00,
2013-02-03 23:32:00,59.9,36.8,29.94,South,170,5.0,10.0,42,0.00,,---,0.00,VWS V14.01,2013-02-04 05:32:00,
2013-02-03 23:35:00,59.9,36.8,29.94,SSE,157,7.0,10.0,42,0.00,,---,0.00,VWS V14.01,2013-02-04 05:35:00,
2013-02-03 23:38:00,59.8,36.7,29.94,SSE,163,3.0,10.0,42,0.00,,---,0.00,VWS V14.01,2013-02-04 05:38:00,
2013-02-03 23:41:00,59.6,36.5,29.94,South,178,6.0,10.0,42,0.00,,---,0.00,VWS V14.01,2013-02-04 05:41:00,
2013-02-03 23:44:00,59.6,37.1,29.94,SE,137,8.0,10.0,43,0.00,,---,0.00,VWS V14.01,2013-02-04 05:44:00,
2013-02-03 23:47:00,59.5,37.0,29.93,SSE,149,8.0,10.0,43,0.00,,---,0.00,VWS V14.01,2013-02-04 05:47:00,
2013-02-03 23:50:00,59.4,36.9,29.93,SSE,159,5.0,10.0,43,0.00,,---,0.00,VWS V14.01,2013-02-04 05:50:00,
2013-02-03 23:53:00,59.3,36.8,29.93,SSE,152,6.0,10.0,43,0.00,,---,0.00,VWS V14.01,2013-02-04 05:53:00,
2013-02-03 23:56:00,59.3,36.8,29.92,South,169,5.0,12.0,43,0.00,,---,0.00,VWS V14.01,2013-02-04 05:56:00,
2013-02-03 23:59:00,59.2,36.7,29.92,SSE,153,7.0,12.0,43,0.00,,---,0.00,VWS V14.01,2013-02-04 05:59:00,